Time;durP1;ratioP1;P1;durP2;ratioP2;P2;SDS_P1;SDS_P2;PMS_P1;PMS_P2;Temp;Humidity;BMP_temperature;BMP_pressure;BME280_temperature;BME280_humidity;BME280_pressure;Samples;Min_cycle;Max_cycle;Signal;HPM_P1;HPM_P2
2021/09/06 00:01:29;;;;;;;22.13;15.50;;;;;;;;;;5158609;27;20460;-53
2021/09/06 00:03:58;;;;;;;20.00;15.57;;;;;;;;;;5158491;27;20457;-53
2021/09/06 00:06:27;;;;;;;20.83;15.17;;;;;;;;;;5158124;27;20462;-52
2021/09/06 00:08:54;;;;;;;20.70;16.20;;;;;;;;;;5158759;27;20573;-52
2021/09/06 00:11:57;;;;;;;18.10;14.10;;;;;;;;;;5158730;28;20457;-47
2021/09/06 00:14:25;;;;;;;23.00;15.50;;;;;;;;;;5158115;28;20448;-52
2021/09/06 00:16:53;;;;;;;19.97;15.70;;;;;;;;;;5171302;27;20445;-50
2021/09/06 00:19:31;;;;;;;26.10;16.33;;;;;;;;;;5162208;27;20445;-57
2021/09/06 00:22:02;;;;;;;19.90;15.37;;;;;;;;;;5158429;28;20437;-52
2021/09/06 00:24:30;;;;;;;16.03;13.20;;;;;;;;;;5158533;28;20454;-47
2021/09/06 00:27:31;;;;;;;22.40;16.00;;;;;;;;;;5158145;27;20442;-56
2021/09/06 00:29:59;;;;;;;21.37;15.23;;;;;;;;;;5177211;27;20496;-51
2021/09/06 00:32:26;;;;;;;25.43;16.10;;;;;;;;;;5182733;27;20436;-47
2021/09/06 00:35:07;;;;;;;21.57;15.43;;;;;;;;;;5183231;27;20444;-55
2021/09/06 00:37:36;;;;;;;21.60;16.17;;;;;;;;;;5181006;27;20480;-49
2021/09/06 00:40:04;;;;;;;19.40;14.10;;;;;;;;;;5183050;27;20455;-54
2021/09/06 00:42:31;;;;;;;20.80;15.00;;;;;;;;;;5182954;27;20489;-50
2021/09/06 00:44:58;;;;;;;22.50;14.03;;;;;;;;;;5183158;27;20433;-51
2021/09/06 00:50:29;;;;;;;22.20;15.87;;;;;;;;;;5156009;27;20484;-55
2021/09/06 00:52:58;;;;;;;19.97;15.93;;;;;;;;;;5141300;28;20442;-55
2021/09/06 00:55:50;;;;;;;22.30;14.50;;;;;;;;;;5140796;28;20497;-51
2021/09/06 00:58:17;;;;;;;22.03;14.80;;;;;;;;;;5141115;28;20466;-50
2021/09/06 01:00:44;;;;;;;20.07;15.07;;;;;;;;;;5140760;28;20457;-50
2021/09/06 01:03:12;;;;;;;22.00;15.77;;;;;;;;;;5141204;28;20438;-45
2021/09/06 01:05:41;;;;;;;24.63;15.90;;;;;;;;;;5140816;28;20434;-52
2021/09/06 01:08:10;;;;;;;24.60;15.07;;;;;;;;;;5140454;28;20474;-52
2021/09/06 01:10:37;;;;;;;17.37;14.00;;;;;;;;;;5141339;28;20457;-54
2021/09/06 01:13:05;;;;;;;22.87;14.30;;;;;;;;;;5139608;28;20472;-55
2021/09/06 01:15:33;;;;;;;19.37;14.60;;;;;;;;;;5140853;28;20454;-52
2021/09/06 01:18:31;;;;;;;18.50;13.83;;;;;;;;;;5140246;28;20470;-55
2021/09/06 01:20:58;;;;;;;19.30;13.43;;;;;;;;;;5105458;28;20480;-46
2021/09/06 01:23:27;;;;;;;19.13;14.70;;;;;;;;;;5099877;28;20460;-52
2021/09/06 01:26:17;;;;;;;19.40;13.97;;;;;;;;;;5099718;28;20488;-48
2021/09/06 01:28:46;;;;;;;16.33;14.37;;;;;;;;;;5142045;27;20496;-54
2021/09/06 01:31:14;;;;;;;16.87;13.53;;;;;;;;;;5161238;27;20461;-55
2021/09/06 01:33:54;;;;;;;20.90;14.80;;;;;;;;;;5165710;27;20472;-54
2021/09/06 01:36:21;;;;;;;17.53;14.40;;;;;;;;;;5161162;27;20449;-48
2021/09/06 01:38:48;;;;;;;19.10;15.00;;;;;;;;;;5160582;27;20443;-58
2021/09/06 01:41:26;;;;;;;20.97;13.70;;;;;;;;;;5160809;27;20449;-52
2021/09/06 01:43:55;;;;;;;17.70;13.57;;;;;;;;;;5161139;27;20474;-48
2021/09/06 01:46:27;;;;;;;17.13;13.33;;;;;;;;;;5160927;27;20461;-54
2021/09/06 01:48:58;;;;;;;18.00;14.10;;;;;;;;;;5160576;27;20473;-58
2021/09/06 01:51:25;;;;;;;20.73;14.50;;;;;;;;;;5160655;27;20487;-53
2021/09/06 01:53:53;;;;;;;16.87;12.57;;;;;;;;;;5160881;27;20417;-55
2021/09/06 01:56:49;;;;;;;19.83;15.03;;;;;;;;;;5161220;27;20437;-53
2021/09/06 01:59:18;;;;;;;19.13;13.83;;;;;;;;;;5160691;27;20449;-52
2021/09/06 02:01:45;;;;;;;21.60;14.97;;;;;;;;;;5160489;27;20526;-50
2021/09/06 02:07:16;;;;;;;21.53;14.43;;;;;;;;;;5139291;27;20470;-47
2021/09/06 02:09:43;;;;;;;20.50;13.80;;;;;;;;;;5139888;28;20477;-54
2021/09/06 02:15:16;;;;;;;17.87;13.37;;;;;;;;;;5119391;28;20526;-55
2021/09/06 02:17:43;;;;;;;17.70;13.60;;;;;;;;;;5119457;28;20482;-52
2021/09/06 02:20:42;;;;;;;19.47;14.57;;;;;;;;;;5119676;28;20463;-54
2021/09/06 02:23:09;;;;;;;20.63;13.50;;;;;;;;;;5119383;28;20443;-51
2021/09/06 02:25:36;;;;;;;21.23;14.93;;;;;;;;;;5118762;28;20451;-51
2021/09/06 02:31:09;;;;;;;21.33;12.70;;;;;;;;;;5119055;28;20426;-51
2021/09/06 02:33:38;;;;;;;16.50;14.50;;;;;;;;;;5119164;28;20455;-53
2021/09/06 02:36:30;;;;;;;18.63;13.53;;;;;;;;;;5119275;28;20499;-51
2021/09/06 02:38:58;;;;;;;17.80;13.67;;;;;;;;;;5118875;28;20463;-53
2021/09/06 02:41:25;;;;;;;18.30;13.43;;;;;;;;;;5118562;28;20534;-48
2021/09/06 02:43:59;;;;;;;22.20;13.90;;;;;;;;;;5118797;28;20485;-50
2021/09/06 02:46:28;;;;;;;17.70;13.87;;;;;;;;;;5118501;28;20443;-52
2021/09/06 02:48:55;;;;;;;18.60;13.47;;;;;;;;;;5118567;28;20455;-48
2021/09/06 02:51:59;;;;;;;18.57;13.93;;;;;;;;;;5117900;28;20541;-53
2021/09/06 02:54:27;;;;;;;17.50;13.30;;;;;;;;;;5118446;28;20431;-52
2021/09/06 02:56:54;;;;;;;18.47;14.77;;;;;;;;;;5118290;28;20486;-50
2021/09/06 02:59:22;;;;;;;17.83;13.97;;;;;;;;;;5118084;28;20459;-55
2021/09/06 03:01:53;;;;;;;16.47;12.23;;;;;;;;;;5117993;28;20451;-58
2021/09/06 03:04:21;;;;;;;18.00;13.70;;;;;;;;;;5118695;28;20442;-53
2021/09/06 03:07:19;;;;;;;20.97;13.17;;;;;;;;;;5118280;28;20439;-55
2021/09/06 03:09:47;;;;;;;20.70;14.20;;;;;;;;;;5118082;28;20491;-52
2021/09/06 03:12:14;;;;;;;17.50;13.60;;;;;;;;;;5113964;28;20459;-52
2021/09/06 03:15:10;;;;;;;19.70;13.40;;;;;;;;;;5097330;28;20476;-54
2021/09/06 03:17:39;;;;;;;19.13;14.40;;;;;;;;;;5097374;28;20448;-50
2021/09/06 03:20:07;;;;;;;18.40;13.93;;;;;;;;;;5097353;28;20471;-55
2021/09/06 03:22:47;;;;;;;21.30;16.00;;;;;;;;;;5102180;28;20485;-53
2021/09/06 03:25:14;;;;;;;20.10;14.20;;;;;;;;;;5117526;28;20510;-53
2021/09/06 03:27:41;;;;;;;19.00;14.80;;;;;;;;;;5118166;28;20439;-49
2021/09/06 03:30:13;;;;;;;19.00;15.00;;;;;;;;;;5117595;28;20475;-52
2021/09/06 03:32:41;;;;;;;20.17;15.00;;;;;;;;;;5117713;28;20436;-57
2021/09/06 03:35:12;;;;;;;22.13;14.57;;;;;;;;;;5117512;28;20471;-55
2021/09/06 03:38:00;;;;;;;18.10;14.30;;;;;;;;;;5117966;28;20459;-57
2021/09/06 03:40:31;;;;;;;17.20;14.17;;;;;;;;;;5117613;28;20502;-54
2021/09/06 03:42:58;;;;;;;19.23;13.97;;;;;;;;;;5117794;28;20427;-52
2021/09/06 03:45:28;;;;;;;19.13;14.27;;;;;;;;;;5117428;28;20440;-53
2021/09/06 03:47:57;;;;;;;18.60;13.80;;;;;;;;;;5117415;28;20447;-53
2021/09/06 03:50:24;;;;;;;18.53;13.77;;;;;;;;;;5117483;28;20491;-54
2021/09/06 03:53:15;;;;;;;20.33;14.20;;;;;;;;;;5117552;28;20462;-58
2021/09/06 03:55:42;;;;;;;17.63;13.80;;;;;;;;;;5115787;28;20521;-53
2021/09/06 03:58:11;;;;;;;22.23;13.77;;;;;;;;;;5117196;28;20461;-55
2021/09/06 04:00:38;;;;;;;19.20;13.60;;;;;;;;;;5117210;28;20503;-52
2021/09/06 04:03:09;;;;;;;22.90;15.00;;;;;;;;;;5116598;28;20471;-53
2021/09/06 04:05:43;;;;;;;26.17;14.73;;;;;;;;;;5117089;28;20434;-54
2021/09/06 04:08:10;;;;;;;18.60;14.40;;;;;;;;;;5099373;28;20456;-56
2021/09/06 04:10:37;;;;;;;20.50;13.80;;;;;;;;;;5096572;28;20484;-53
2021/09/06 04:13:05;;;;;;;29.40;14.73;;;;;;;;;;5096646;28;20464;-53
2021/09/06 04:15:33;;;;;;;18.47;14.30;;;;;;;;;;5134423;28;20480;-54
2021/09/06 04:18:00;;;;;;;17.90;12.63;;;;;;;;;;5157810;28;20450;-51
2021/09/06 04:20:41;;;;;;;23.40;13.87;;;;;;;;;;5158437;27;20441;-58
2021/09/06 04:23:08;;;;;;;16.20;12.23;;;;;;;;;;5157955;27;20437;-58
2021/09/06 04:25:36;;;;;;;18.93;13.13;;;;;;;;;;5158367;28;20444;-54
2021/09/06 04:28:24;;;;;;;19.90;14.60;;;;;;;;;;5157830;28;20461;-50
2021/09/06 04:30:56;;;;;;;22.33;15.37;;;;;;;;;;5158372;28;20503;-54
2021/09/06 04:33:25;;;;;;;20.87;14.07;;;;;;;;;;5156365;28;20471;-58
2021/09/06 04:35:57;;;;;;;19.90;13.60;;;;;;;;;;5156271;27;20476;-59
2021/09/06 04:38:25;;;;;;;20.57;14.17;;;;;;;;;;5156866;28;20494;-57
2021/09/06 04:40:53;;;;;;;20.67;14.67;;;;;;;;;;5136811;27;20458;-53
2021/09/06 04:43:39;;;;;;;22.70;14.27;;;;;;;;;;5151752;28;20449;-58
2021/09/06 04:46:09;;;;;;;20.77;13.77;;;;;;;;;;5157350;27;20437;-54
2021/09/06 04:48:38;;;;;;;24.27;15.80;;;;;;;;;;5157603;27;20477;-53
2021/09/06 04:54:19;;;;;;;22.00;14.70;;;;;;;;;;5155707;27;20422;-47
2021/09/06 04:56:47;;;;;;;23.93;14.20;;;;;;;;;;5142280;28;20468;-53
2021/09/06 04:59:16;;;;;;;19.43;13.20;;;;;;;;;;5136514;27;20517;-59
2021/09/06 05:01:43;;;;;;;23.83;15.33;;;;;;;;;;5136883;28;20459;-56
2021/09/06 05:04:13;;;;;;;18.00;13.37;;;;;;;;;;5149336;28;20445;-55
2021/09/06 05:06:40;;;;;;;22.40;14.53;;;;;;;;;;5157402;28;20475;-50
2021/09/06 05:09:10;;;;;;;19.20;12.80;;;;;;;;;;5156611;28;20441;-53
2021/09/06 05:11:39;;;;;;;21.20;15.07;;;;;;;;;;5157167;27;20497;-53
2021/09/06 05:14:07;;;;;;;24.30;14.70;;;;;;;;;;5152761;27;20498;-54
2021/09/06 05:16:41;;;;;;;21.97;14.60;;;;;;;;;;5140293;28;20454;-51
2021/09/06 05:19:13;;;;;;;19.00;13.10;;;;;;;;;;5141405;27;20477;-55
2021/09/06 05:21:40;;;;;;;24.43;15.27;;;;;;;;;;5139640;28;20462;-56
2021/09/06 05:24:07;;;;;;;20.67;14.77;;;;;;;;;;5140218;28;20457;-55
2021/09/06 05:26:35;;;;;;;23.37;15.27;;;;;;;;;;5140180;28;20442;-53
2021/09/06 05:29:21;;;;;;;20.10;14.77;;;;;;;;;;5140246;28;20567;-54
2021/09/06 05:31:57;;;;;;;24.80;15.37;;;;;;;;;;5136523;28;20438;-52
2021/09/06 05:34:27;;;;;;;19.77;14.00;;;;;;;;;;5138009;28;20458;-56
2021/09/06 05:36:58;;;;;;;22.17;14.83;;;;;;;;;;5139463;28;20445;-53
2021/09/06 05:39:27;;;;;;;20.60;13.70;;;;;;;;;;5139626;28;20442;-49
2021/09/06 05:42:21;;;;;;;17.93;13.93;;;;;;;;;;5139845;28;20473;-57
2021/09/06 05:44:51;;;;;;;18.50;14.20;;;;;;;;;;5136227;28;20536;-57
2021/09/06 05:47:20;;;;;;;15.60;12.80;;;;;;;;;;5138907;28;20438;-55
2021/09/06 05:50:22;;;;;;;20.17;14.20;;;;;;;;;;5138785;28;20500;-56
2021/09/06 05:52:49;;;;;;;23.67;15.23;;;;;;;;;;5127849;28;20445;-55
2021/09/06 05:55:16;;;;;;;22.87;15.77;;;;;;;;;;5138801;28;20457;-52
2021/09/06 05:58:09;;;;;;;22.57;14.23;;;;;;;;;;5138580;28;20464;-55
2021/09/06 06:00:39;;;;;;;19.00;15.20;;;;;;;;;;5150583;27;20522;-56
2021/09/06 06:03:07;;;;;;;18.13;13.70;;;;;;;;;;5159633;27;20747;-50
2021/09/06 06:05:41;;;;;;;25.30;15.50;;;;;;;;;;5151443;27;20442;-54
2021/09/06 06:08:09;;;;;;;22.67;16.70;;;;;;;;;;5144964;27;20454;-48
2021/09/06 06:10:36;;;;;;;28.10;14.33;;;;;;;;;;5159005;27;20473;-56
2021/09/06 06:13:06;;;;;;;19.40;15.50;;;;;;;;;;5139395;28;20462;-52
2021/09/06 06:15:33;;;;;;;18.30;13.70;;;;;;;;;;5142504;27;20496;-62
2021/09/06 06:18:02;;;;;;;32.03;17.20;;;;;;;;;;5159524;27;20453;-52
2021/09/06 06:20:31;;;;;;;21.40;15.00;;;;;;;;;;5159557;27;20445;-54
2021/09/06 06:22:59;;;;;;;22.50;15.20;;;;;;;;;;5159171;27;20549;-51
2021/09/06 06:25:26;;;;;;;18.90;15.30;;;;;;;;;;5155130;27;20459;-58
2021/09/06 06:27:53;;;;;;;25.30;16.00;;;;;;;;;;5138589;28;20438;-53
2021/09/06 06:30:23;;;;;;;20.60;15.20;;;;;;;;;;5138652;28;20474;-52
2021/09/06 06:32:51;;;;;;;27.13;15.50;;;;;;;;;;5120019;28;20462;-60
2021/09/06 06:35:23;;;;;;;26.73;16.90;;;;;;;;;;5139823;27;20462;-53
2021/09/06 06:37:53;;;;;;;23.03;15.83;;;;;;;;;;5138931;28;20438;-52
2021/09/06 06:40:22;;;;;;;22.33;16.53;;;;;;;;;;5138846;28;20446;-53
2021/09/06 06:42:58;;;;;;;22.23;16.43;;;;;;;;;;5150149;27;20456;-56
2021/09/06 06:45:36;;;;;;;21.80;17.30;;;;;;;;;;5140134;27;20446;-50
2021/09/06 06:48:04;;;;;;;27.90;17.47;;;;;;;;;;5145519;27;20504;-50
2021/09/06 06:50:42;;;;;;;19.87;14.80;;;;;;;;;;5137075;28;20477;-51
2021/09/06 06:53:17;;;;;;;23.90;16.70;;;;;;;;;;5139895;27;20450;-53
2021/09/06 06:56:03;;;;;;;28.93;16.43;;;;;;;;;;5148153;27;20511;-54
2021/09/06 06:58:32;;;;;;;19.60;15.30;;;;;;;;;;5158429;27;20453;-47
2021/09/06 07:01:02;;;;;;;20.83;15.83;;;;;;;;;;5159121;27;20473;-55
2021/09/06 07:03:30;;;;;;;27.37;15.27;;;;;;;;;;5158095;27;20449;-59
2021/09/06 07:05:59;;;;;;;25.03;15.87;;;;;;;;;;5158412;27;20433;-51
2021/09/06 07:08:26;;;;;;;20.77;15.87;;;;;;;;;;5158348;27;20442;-52
2021/09/06 07:10:54;;;;;;;25.03;17.33;;;;;;;;;;5158443;27;20481;-53
2021/09/06 07:13:21;;;;;;;21.60;16.97;;;;;;;;;;5158044;27;20449;-55
2021/09/06 07:15:58;;;;;;;22.67;16.50;;;;;;;;;;5157563;27;20524;-54
2021/09/06 07:18:26;;;;;;;20.37;14.30;;;;;;;;;;5137917;28;20440;-46
2021/09/06 07:20:56;;;;;;;21.10;16.53;;;;;;;;;;5156635;27;20505;-56
2021/09/06 07:26:29;;;;;;;21.70;16.00;;;;;;;;;;5155975;27;20548;-53
2021/09/06 07:29:00;;;;;;;20.90;15.77;;;;;;;;;;5158035;27;20437;-56
2021/09/06 07:31:27;;;;;;;19.40;15.07;;;;;;;;;;5158016;27;20477;-52
2021/09/06 07:33:55;;;;;;;20.80;16.00;;;;;;;;;;5156159;27;20465;-57
2021/09/06 07:36:38;;;;;;;19.40;16.03;;;;;;;;;;5136579;27;20468;-51
2021/09/06 07:39:05;;;;;;;18.83;14.00;;;;;;;;;;5151248;27;20443;-50
2021/09/06 07:41:49;;;;;;;21.77;15.83;;;;;;;;;;5157613;27;20433;-49
2021/09/06 07:44:17;;;;;;;20.63;16.63;;;;;;;;;;5157843;27;20457;-57
2021/09/06 07:46:52;;;;;;;18.17;14.80;;;;;;;;;;5157486;27;20474;-55
2021/09/06 07:49:26;;;;;;;28.03;17.17;;;;;;;;;;5158364;27;20481;-49
2021/09/06 07:51:54;;;;;;;18.50;14.13;;;;;;;;;;5154081;27;20554;-56
2021/09/06 07:54:27;;;;;;;22.90;17.10;;;;;;;;;;5157485;27;20453;-54
2021/09/06 07:57:06;;;;;;;18.10;14.30;;;;;;;;;;5157940;27;20463;-53
2021/09/06 07:59:34;;;;;;;18.80;15.83;;;;;;;;;;5155098;27;20481;-57
2021/09/06 08:02:01;;;;;;;19.50;14.87;;;;;;;;;;5157315;27;20460;-54
2021/09/06 08:04:41;;;;;;;21.53;16.43;;;;;;;;;;5157130;27;20457;-58
2021/09/06 08:07:11;;;;;;;18.53;14.87;;;;;;;;;;5155683;27;21015;-53
2021/09/06 08:09:39;;;;;;;16.00;13.37;;;;;;;;;;5157353;27;20440;-59
2021/09/06 08:12:08;;;;;;;18.53;13.20;;;;;;;;;;5157267;27;20481;-54
2021/09/06 08:14:38;;;;;;;19.60;15.53;;;;;;;;;;5156829;27;20430;-55
2021/09/06 08:17:05;;;;;;;19.83;14.77;;;;;;;;;;5156967;27;20459;-52
2021/09/06 08:19:33;;;;;;;21.20;14.07;;;;;;;;;;5139115;28;20432;-59
2021/09/06 08:22:10;;;;;;;19.90;15.20;;;;;;;;;;5145248;28;20431;-53
2021/09/06 08:24:44;;;;;;;17.60;15.13;;;;;;;;;;5136189;28;20450;-58
2021/09/06 08:27:14;;;;;;;23.10;16.37;;;;;;;;;;5136245;28;20495;-54
2021/09/06 08:29:42;;;;;;;24.33;15.07;;;;;;;;;;5136389;28;20423;-54
2021/09/06 08:32:16;;;;;;;19.33;14.73;;;;;;;;;;5136000;28;20469;-58
2021/09/06 08:34:43;;;;;;;16.83;13.83;;;;;;;;;;5135606;28;20518;-49
2021/09/06 08:37:15;;;;;;;19.43;16.17;;;;;;;;;;5136382;28;20435;-58
2021/09/06 08:39:53;;;;;;;17.43;14.40;;;;;;;;;;5141746;28;20452;-51
2021/09/06 08:42:22;;;;;;;20.00;15.00;;;;;;;;;;5135671;28;20462;-50
2021/09/06 08:44:49;;;;;;;17.57;13.90;;;;;;;;;;5150178;28;20450;-52
2021/09/06 08:50:21;;;;;;;18.57;14.60;;;;;;;;;;5139457;28;20577;-51
2021/09/06 08:52:48;;;;;;;17.30;14.00;;;;;;;;;;5140215;28;20485;-50
2021/09/06 08:55:47;;;;;;;21.47;16.17;;;;;;;;;;5148921;27;20507;-55
2021/09/06 08:58:16;;;;;;;16.47;13.20;;;;;;;;;;5160635;27;20449;-55
2021/09/06 09:00:47;;;;;;;17.37;14.17;;;;;;;;;;5159818;27;20445;-58
2021/09/06 09:06:22;;;;;;;15.23;13.30;;;;;;;;;;5157596;27;20461;-51
2021/09/06 09:08:50;;;;;;;18.30;15.40;;;;;;;;;;5159903;27;20651;-53
2021/09/06 09:11:17;;;;;;;20.43;14.70;;;;;;;;;;5159914;27;20518;-55
2021/09/06 09:13:52;;;;;;;16.70;13.33;;;;;;;;;;5157093;27;20493;-54
2021/09/06 09:16:47;;;;;;;19.70;13.43;;;;;;;;;;5160551;27;20489;-53
2021/09/06 09:19:16;;;;;;;21.00;15.13;;;;;;;;;;5155065;27;20502;-57
2021/09/06 09:21:53;;;;;;;19.70;14.80;;;;;;;;;;5157275;27;20437;-54
2021/09/06 09:24:39;;;;;;;16.70;12.67;;;;;;;;;;5159827;27;20500;-48
2021/09/06 09:27:07;;;;;;;21.00;15.97;;;;;;;;;;5149648;27;20439;-54
2021/09/06 09:29:47;;;;;;;18.30;13.20;;;;;;;;;;5147877;27;20460;-50
2021/09/06 09:32:22;;;;;;;20.87;14.00;;;;;;;;;;5159669;27;20484;-52
2021/09/06 09:34:50;;;;;;;17.47;13.47;;;;;;;;;;5158262;27;20485;-58
2021/09/06 09:37:25;;;;;;;18.23;14.37;;;;;;;;;;5159667;27;20441;-56
2021/09/06 09:40:14;;;;;;;19.30;14.97;;;;;;;;;;5159228;27;20461;-52
2021/09/06 09:42:52;;;;;;;18.50;13.10;;;;;;;;;;5157927;27;20505;-59
2021/09/06 09:45:25;;;;;;;17.00;14.57;;;;;;;;;;5159834;27;20449;-55
2021/09/06 09:47:53;;;;;;;18.57;14.63;;;;;;;;;;5158921;27;20445;-48
2021/09/06 09:50:22;;;;;;;20.00;13.73;;;;;;;;;;5159346;27;20449;-48
2021/09/06 09:55:53;;;;;;;17.33;13.77;;;;;;;;;;5157526;27;20482;-57
2021/09/06 09:58:21;;;;;;;17.57;14.67;;;;;;;;;;5151291;27;20514;-55
2021/09/06 10:01:03;;;;;;;16.10;13.07;;;;;;;;;;5150885;27;20445;-52
2021/09/06 10:03:34;;;;;;;17.30;12.70;;;;;;;;;;5139448;27;20447;-55
2021/09/06 10:06:02;;;;;;;20.40;12.80;;;;;;;;;;5138278;28;20434;-52
2021/09/06 10:11:42;;;;;;;22.63;17.57;;;;;;;;;;5138478;28;20499;-57
2021/09/06 10:14:19;;;;;;;20.77;14.07;;;;;;;;;;5155809;27;20509;-50
2021/09/06 10:17:05;;;;;;;19.70;14.67;;;;;;;;;;5159719;27;20472;-52
2021/09/06 10:19:41;;;;;;;21.70;15.73;;;;;;;;;;5150125;27;20461;-57
2021/09/06 10:22:29;;;;;;;20.50;15.70;;;;;;;;;;5149466;27;20490;-55
2021/09/06 10:24:59;;;;;;;16.63;14.20;;;;;;;;;;5159318;27;20437;-49
2021/09/06 10:27:40;;;;;;;15.67;13.53;;;;;;;;;;5139493;27;20454;-51
2021/09/06 10:30:08;;;;;;;16.07;14.00;;;;;;;;;;5156237;27;20472;-53
2021/09/06 10:32:39;;;;;;;17.00;12.77;;;;;;;;;;5159010;27;20538;-58
2021/09/06 10:35:14;;;;;;;20.80;14.77;;;;;;;;;;5144681;27;20442;-57
2021/09/06 10:37:43;;;;;;;20.53;14.90;;;;;;;;;;5135593;28;20494;-51
2021/09/06 10:40:27;;;;;;;17.90;13.03;;;;;;;;;;5138050;28;20454;-56
2021/09/06 10:43:14;;;;;;;17.87;14.03;;;;;;;;;;5137195;28;20489;-54
2021/09/06 10:46:11;;;;;;;16.13;12.60;;;;;;;;;;5145235;27;20548;-59
2021/09/06 10:48:49;;;;;;;20.37;14.13;;;;;;;;;;5158800;27;20446;-47
2021/09/06 10:51:23;;;;;;;17.67;14.27;;;;;;;;;;5155743;27;20493;-59
2021/09/06 10:56:59;;;;;;;13.57;12.07;;;;;;;;;;5153253;27;20409;-56
2021/09/06 10:59:45;;;;;;;15.30;12.83;;;;;;;;;;5137535;28;20438;-54
2021/09/06 11:02:13;;;;;;;18.23;12.50;;;;;;;;;;5149665;27;20430;-52
2021/09/06 11:04:52;;;;;;;19.30;14.60;;;;;;;;;;5157938;27;20444;-53
2021/09/06 11:07:29;;;;;;;17.70;15.20;;;;;;;;;;5149961;27;20449;-50
2021/09/06 11:10:25;;;;;;;17.00;13.93;;;;;;;;;;5157720;27;20514;-55
2021/09/06 11:13:03;;;;;;;16.80;13.57;;;;;;;;;;5149842;27;20522;-57
2021/09/06 11:21:29;;;;;;;22.43;16.87;;;;;;;;;;5136962;28;20518;-58
2021/09/06 11:23:58;;;;;;;22.77;17.00;;;;;;;;;;5136544;28;20454;-55
2021/09/06 11:26:27;;;;;;;25.00;18.20;;;;;;;;;;5147635;27;20480;-57
2021/09/06 11:29:05;;;;;;;24.97;18.40;;;;;;;;;;5157556;27;20561;-54
2021/09/06 11:32:04;;;;;;;23.83;18.27;;;;;;;;;;5157150;27;20485;-51
2021/09/06 11:34:43;;;;;;;22.67;18.40;;;;;;;;;;5151334;27;20454;-51
2021/09/06 11:40:22;;;;;;;25.40;18.50;;;;;;;;;;5157362;27;20396;-54
2021/09/06 11:42:58;;;;;;;22.93;16.37;;;;;;;;;;5147396;27;20442;-49
2021/09/06 11:45:45;;;;;;;21.53;16.87;;;;;;;;;;5149817;27;20451;-49
2021/09/06 11:48:15;;;;;;;19.77;16.43;;;;;;;;;;5136987;27;20506;-53
2021/09/06 11:50:45;;;;;;;20.60;16.03;;;;;;;;;;5150220;27;20515;-54
2021/09/06 11:53:20;;;;;;;19.23;15.07;;;;;;;;;;5135459;28;20467;-53
2021/09/06 11:56:02;;;;;;;19.73;16.33;;;;;;;;;;5154411;27;20438;-52
2021/09/06 11:58:44;;;;;;;24.20;15.50;;;;;;;;;;5156479;27;20465;-51
2021/09/06 12:01:15;;;;;;;20.00;15.53;;;;;;;;;;5155566;27;20498;-53
2021/09/06 12:03:45;;;;;;;18.30;14.80;;;;;;;;;;5156826;27;20429;-57
2021/09/06 12:06:28;;;;;;;18.90;15.73;;;;;;;;;;5153561;27;20437;-53
2021/09/06 12:08:58;;;;;;;20.13;16.17;;;;;;;;;;5135484;27;20452;-56
2021/09/06 12:11:35;;;;;;;23.53;16.53;;;;;;;;;;5135939;28;20492;-47
2021/09/06 12:17:10;;;;;;;20.37;17.00;;;;;;;;;;5152429;28;20472;-53
2021/09/06 12:19:44;;;;;;;19.70;14.77;;;;;;;;;;5156439;28;20453;-56
2021/09/06 12:22:18;;;;;;;21.80;16.60;;;;;;;;;;5155598;27;20496;-58
2021/09/06 12:24:45;;;;;;;20.30;16.00;;;;;;;;;;5142073;27;20677;-53
2021/09/06 12:27:17;;;;;;;23.00;17.10;;;;;;;;;;5139760;27;20504;-57
2021/09/06 12:29:57;;;;;;;21.13;15.57;;;;;;;;;;5155912;27;20453;-56
2021/09/06 12:32:27;;;;;;;19.80;14.47;;;;;;;;;;5149624;27;20486;-55
2021/09/06 12:34:54;;;;;;;22.30;15.70;;;;;;;;;;5141113;28;20501;-50
2021/09/06 12:37:25;;;;;;;20.20;15.07;;;;;;;;;;5149446;27;20466;-50
2021/09/06 12:39:57;;;;;;;21.23;15.60;;;;;;;;;;5140084;28;20758;-55
2021/09/06 12:42:33;;;;;;;29.03;20.80;;;;;;;;;;5160531;27;20475;-55
2021/09/06 12:45:32;;;;;;;19.87;14.30;;;;;;;;;;5149182;27;20473;-56
2021/09/06 12:48:00;;;;;;;23.70;17.27;;;;;;;;;;5140791;28;20457;-53
2021/09/06 12:50:27;;;;;;;23.20;18.87;;;;;;;;;;5147314;27;20437;-58
2021/09/06 12:52:55;;;;;;;20.17;16.90;;;;;;;;;;5140318;28;20466;-55
2021/09/06 12:55:53;;;;;;;24.00;18.40;;;;;;;;;;5154297;27;20434;-55
2021/09/06 12:58:25;;;;;;;18.70;13.43;;;;;;;;;;5154916;27;20437;-55
2021/09/06 13:00:53;;;;;;;23.27;14.60;;;;;;;;;;5146986;27;20458;-59
2021/09/06 13:03:20;;;;;;;19.10;13.93;;;;;;;;;;5148868;27;20441;-57
2021/09/06 13:06:21;;;;;;;15.57;12.13;;;;;;;;;;5145186;27;20464;-56
2021/09/06 13:09:04;;;;;;;14.73;12.60;;;;;;;;;;5151247;27;20447;-48
2021/09/06 13:11:39;;;;;;;18.40;12.90;;;;;;;;;;5139477;27;20896;-56
2021/09/06 13:14:22;;;;;;;16.83;12.63;;;;;;;;;;5150307;27;20477;-58
2021/09/06 13:17:02;;;;;;;15.77;12.27;;;;;;;;;;5152667;27;20481;-56
2021/09/06 13:19:32;;;;;;;18.43;13.10;;;;;;;;;;5159988;27;20445;-54
2021/09/06 13:21:59;;;;;;;16.27;12.40;;;;;;;;;;5155658;27;20479;-56
2021/09/06 13:24:42;;;;;;;16.03;12.87;;;;;;;;;;5144009;27;20454;-49
2021/09/06 13:27:12;;;;;;;15.00;11.53;;;;;;;;;;5153134;27;20478;-57
2021/09/06 13:29:41;;;;;;;16.90;11.77;;;;;;;;;;5141970;27;20461;-51
2021/09/06 13:32:09;;;;;;;17.60;12.10;;;;;;;;;;5138409;27;20498;-55
2021/09/06 13:34:38;;;;;;;16.90;12.50;;;;;;;;;;5139111;28;20504;-56
2021/09/06 13:37:06;;;;;;;17.47;14.40;;;;;;;;;;5139744;28;20426;-51
2021/09/06 13:39:33;;;;;;;24.67;14.20;;;;;;;;;;5123102;28;20469;-50
2021/09/06 13:42:01;;;;;;;16.80;13.23;;;;;;;;;;5124622;28;20488;-55
2021/09/06 13:44:30;;;;;;;17.97;14.00;;;;;;;;;;5129075;28;20549;-46
2021/09/06 13:47:03;;;;;;;14.10;12.53;;;;;;;;;;5133557;28;20431;-52
2021/09/06 13:49:37;;;;;;;17.57;12.97;;;;;;;;;;5118033;28;20458;-54
2021/09/06 13:52:05;;;;;;;16.40;12.10;;;;;;;;;;5133840;27;20509;-55
2021/09/06 13:54:32;;;;;;;16.87;11.90;;;;;;;;;;5158510;27;20553;-55
2021/09/06 13:57:13;;;;;;;16.80;11.80;;;;;;;;;;5159788;27;20464;-53
2021/09/06 13:59:40;;;;;;;15.10;11.40;;;;;;;;;;5160346;27;20442;-56
2021/09/06 14:02:25;;;;;;;17.77;10.60;;;;;;;;;;5159560;27;20463;-53
2021/09/06 14:04:53;;;;;;;14.67;12.53;;;;;;;;;;5157475;27;20454;-50
2021/09/06 14:07:31;;;;;;;19.50;14.20;;;;;;;;;;5146700;27;20517;-62
2021/09/06 14:09:58;;;;;;;15.70;11.93;;;;;;;;;;5138932;28;20434;-51
2021/09/06 14:12:26;;;;;;;16.43;11.27;;;;;;;;;;5148351;27;20462;-54
2021/09/06 14:14:53;;;;;;;16.47;11.47;;;;;;;;;;5149412;27;20450;-57
2021/09/06 14:20:40;;;;;;;16.03;11.87;;;;;;;;;;5152865;27;20444;-55
2021/09/06 14:23:23;;;;;;;17.90;13.90;;;;;;;;;;5149057;27;20449;-55
2021/09/06 14:25:51;;;;;;;18.20;13.83;;;;;;;;;;5152697;27;20463;-55
2021/09/06 14:28:42;;;;;;;20.33;16.77;;;;;;;;;;5139088;27;20434;-52
2021/09/06 14:31:13;;;;;;;19.17;14.63;;;;;;;;;;5145668;27;20453;-54
2021/09/06 14:33:41;;;;;;;18.10;13.30;;;;;;;;;;5149937;27;20493;-49
2021/09/06 14:36:13;;;;;;;16.23;11.10;;;;;;;;;;5157228;27;20438;-58
2021/09/06 14:38:54;;;;;;;15.00;12.10;;;;;;;;;;5156361;27;20512;-56
2021/09/06 14:41:23;;;;;;;26.53;15.07;;;;;;;;;;5149815;27;20450;-58
2021/09/06 14:46:55;;;;;;;19.20;12.80;;;;;;;;;;5154895;27;20468;-55
2021/09/06 14:49:26;;;;;;;17.77;11.33;;;;;;;;;;5158062;27;20469;-56
2021/09/06 14:52:06;;;;;;;16.50;12.17;;;;;;;;;;5158268;27;20489;-50
2021/09/06 14:54:35;;;;;;;16.40;12.00;;;;;;;;;;5157612;27;20457;-55
2021/09/06 14:57:04;;;;;;;15.30;11.10;;;;;;;;;;5158361;27;20465;-56
2021/09/06 14:59:52;;;;;;;15.10;11.40;;;;;;;;;;5158525;27;20448;-54
2021/09/06 15:02:19;;;;;;;13.87;11.87;;;;;;;;;;5156018;27;20465;-56
2021/09/06 15:04:46;;;;;;;15.73;11.70;;;;;;;;;;5157791;27;20461;-54
2021/09/06 15:07:47;;;;;;;14.90;11.30;;;;;;;;;;5157774;27;20565;-50
2021/09/06 15:10:27;;;;;;;17.07;12.33;;;;;;;;;;5137626;28;20434;-51
2021/09/06 15:12:59;;;;;;;13.90;10.80;;;;;;;;;;5151307;27;20464;-53
2021/09/06 15:15:36;;;;;;;13.80;10.53;;;;;;;;;;5158052;27;20469;-52
2021/09/06 15:18:18;;;;;;;17.07;10.37;;;;;;;;;;5158177;27;20457;-52
2021/09/06 15:20:53;;;;;;;14.50;11.23;;;;;;;;;;5138449;28;20806;-54
2021/09/06 15:23:25;;;;;;;15.20;12.20;;;;;;;;;;5137900;28;20514;-49
2021/09/06 15:25:59;;;;;;;15.80;11.10;;;;;;;;;;5153655;27;20843;-58
2021/09/06 15:28:39;;;;;;;16.13;13.23;;;;;;;;;;5155292;27;20442;-52
2021/09/06 15:31:29;;;;;;;19.30;13.77;;;;;;;;;;5152599;27;20453;-49
2021/09/06 15:33:56;;;;;;;20.37;15.20;;;;;;;;;;5154840;27;20485;-54
2021/09/06 15:36:29;;;;;;;19.97;13.50;;;;;;;;;;5150509;27;20453;-51
2021/09/06 15:39:09;;;;;;;15.53;12.13;;;;;;;;;;5157747;27;20522;-51
2021/09/06 15:41:39;;;;;;;15.23;11.80;;;;;;;;;;5166877;27;20472;-52
2021/09/06 15:44:07;;;;;;;17.03;12.90;;;;;;;;;;5167850;27;20438;-49